sensor_id;sensor_type;location;lat;lon;timestamp;pressure;altitude;pressure_sealevel;temperature
27826;BMP280;15077;49.704;9.908;2022-12-16T00:01:19;97027.97;;;2.78
27826;BMP280;15077;49.704;9.908;2022-12-16T00:03:53;97024.59;;;2.79
27826;BMP280;15077;49.704;9.908;2022-12-16T00:06:21;97021.25;;;2.80
27826;BMP280;15077;49.704;9.908;2022-12-16T00:08:47;97022.91;;;2.81
27826;BMP280;15077;49.704;9.908;2022-12-16T00:11:14;97008.69;;;2.81
27826;BMP280;15077;49.704;9.908;2022-12-16T00:13:40;97010.38;;;2.81
27826;BMP280;15077;49.704;9.908;2022-12-16T00:16:15;97015.34;;;2.82
27826;BMP280;15077;49.704;9.908;2022-12-16T00:18:43;97007.03;;;2.80
27826;BMP280;15077;49.704;9.908;2022-12-16T00:21:09;97013.75;;;2.80
27826;BMP280;15077;49.704;9.908;2022-12-16T00:23:38;97010.44;;;2.79
27826;BMP280;15077;49.704;9.908;2022-12-16T00:26:07;97012.88;;;2.81
27826;BMP280;15077;49.704;9.908;2022-12-16T00:28:33;97013.69;;;2.81
27826;BMP280;15077;49.704;9.908;2022-12-16T00:31:00;97014.50;;;2.82
27826;BMP280;15077;49.704;9.908;2022-12-16T00:33:28;97008.66;;;2.83
27826;BMP280;15077;49.704;9.908;2022-12-16T00:35:57;97008.66;;;2.83
27826;BMP280;15077;49.704;9.908;2022-12-16T00:38:26;96998.59;;;2.84
27826;BMP280;15077;49.704;9.908;2022-12-16T00:40:54;97004.41;;;2.85
27826;BMP280;15077;49.704;9.908;2022-12-16T00:43:22;97007.75;;;2.85
27826;BMP280;15077;49.704;9.908;2022-12-16T00:45:49;97008.56;;;2.86
27826;BMP280;15077;49.704;9.908;2022-12-16T00:48:15;97010.16;;;2.88
27826;BMP280;15077;49.704;9.908;2022-12-16T00:50:53;97005.13;;;2.89
27826;BMP280;15077;49.704;9.908;2022-12-16T00:53:20;97002.63;;;2.89
27826;BMP280;15077;49.704;9.908;2022-12-16T00:55:46;97011.75;;;2.90
27826;BMP280;15077;49.704;9.908;2022-12-16T00:58:13;97011.72;;;2.92
27826;BMP280;15077;49.704;9.908;2022-12-16T01:00:39;97014.16;;;2.93
27826;BMP280;15077;49.704;9.908;2022-12-16T01:03:05;97008.34;;;2.93
27826;BMP280;15077;49.704;9.908;2022-12-16T01:05:31;97020.81;;;2.94
27826;BMP280;15077;49.704;9.908;2022-12-16T01:07:57;97020.81;;;2.94
27826;BMP280;15077;49.704;9.908;2022-12-16T01:10:24;97022.38;;;2.98
27826;BMP280;15077;49.704;9.908;2022-12-16T01:12:51;97031.47;;;3.01
27826;BMP280;15077;49.704;9.908;2022-12-16T01:15:19;97032.31;;;3.01
27826;BMP280;15077;49.704;9.908;2022-12-16T01:17:45;97041.44;;;3.02
27826;BMP280;15077;49.704;9.908;2022-12-16T01:20:12;97041.41;;;3.04
27826;BMP280;15077;49.704;9.908;2022-12-16T01:22:38;97048.84;;;3.05
27826;BMP280;15077;49.704;9.908;2022-12-16T01:25:05;97058.78;;;3.08
27826;BMP280;15077;49.704;9.908;2022-12-16T01:27:31;97066.25;;;3.10
27826;BMP280;15077;49.704;9.908;2022-12-16T01:29:57;97053.69;;;3.11
27826;BMP280;15077;49.704;9.908;2022-12-16T01:32:23;97049.50;;;3.13
27826;BMP280;15077;49.704;9.908;2022-12-16T01:34:53;97055.31;;;3.14
27826;BMP280;15077;49.704;9.908;2022-12-16T01:37:19;97048.59;;;3.14
27826;BMP280;15077;49.704;9.908;2022-12-16T01:39:46;97042.69;;;3.17
27826;BMP280;15077;49.704;9.908;2022-12-16T01:42:19;97058.50;;;3.19
27826;BMP280;15077;49.704;9.908;2022-12-16T01:44:48;97060.94;;;3.20
27826;BMP280;15077;49.704;9.908;2022-12-16T01:47:25;97065.09;;;3.21
27826;BMP280;15077;49.704;9.908;2022-12-16T01:49:58;97062.56;;;3.23
27826;BMP280;15077;49.704;9.908;2022-12-16T01:52:36;97060.00;;;3.24
27826;BMP280;15077;49.704;9.908;2022-12-16T01:55:43;97060.91;;;3.22
27826;BMP280;15077;49.704;9.908;2022-12-16T01:58:23;97064.16;;;3.25
27826;BMP280;15077;49.704;9.908;2022-12-16T02:00:51;97063.31;;;3.26
27826;BMP280;15077;49.704;9.908;2022-12-16T02:03:17;97059.91;;;3.27
27826;BMP280;15077;49.704;9.908;2022-12-16T02:05:44;97059.84;;;3.30
27826;BMP280;15077;49.704;9.908;2022-12-16T02:08:18;97058.13;;;3.32
27826;BMP280;15077;49.704;9.908;2022-12-16T02:14:21;97053.97;;;3.31
27826;BMP280;15077;49.704;9.908;2022-12-16T02:17:06;97053.22;;;3.29
27826;BMP280;15077;49.704;9.908;2022-12-16T02:22:32;97056.66;;;3.25
27826;BMP280;15077;49.704;9.908;2022-12-16T02:37:15;97041.72;;;3.22
27826;BMP280;15077;49.704;9.908;2022-12-16T02:39:51;97039.97;;;3.24
27826;BMP280;15077;49.704;9.908;2022-12-16T02:42:49;97036.72;;;3.22
27826;BMP280;15077;49.704;9.908;2022-12-16T02:45:27;97033.41;;;3.20
27826;BMP280;15077;49.704;9.908;2022-12-16T02:47:54;97029.28;;;3.19
27826;BMP280;15077;49.704;9.908;2022-12-16T02:50:35;97028.50;;;3.17
27826;BMP280;15077;49.704;9.908;2022-12-16T02:53:02;97036.00;;;3.17
27826;BMP280;15077;49.704;9.908;2022-12-16T02:55:48;97035.22;;;3.15
27826;BMP280;15077;49.704;9.908;2022-12-16T02:58:51;97038.69;;;3.11
27826;BMP280;15077;49.704;9.908;2022-12-16T03:04:15;97043.78;;;3.08
27826;BMP280;15077;49.704;9.908;2022-12-16T03:06:48;97041.25;;;3.08
27826;BMP280;15077;49.704;9.908;2022-12-16T03:09:21;97048.78;;;3.08
27826;BMP280;15077;49.704;9.908;2022-12-16T03:11:51;97049.63;;;3.09
27826;BMP280;15077;49.704;9.908;2022-12-16T03:14:21;97049.63;;;3.09
27826;BMP280;15077;49.704;9.908;2022-12-16T03:16:49;97055.44;;;3.09
27826;BMP280;15077;49.704;9.908;2022-12-16T03:19:16;97052.06;;;3.10
27826;BMP280;15077;49.704;9.908;2022-12-16T03:24:27;97053.69;;;3.11
27826;BMP280;15077;49.704;9.908;2022-12-16T03:27:20;97054.53;;;3.12
27826;BMP280;15077;49.704;9.908;2022-12-16T03:30:11;97052.88;;;3.11
27826;BMP280;15077;49.704;9.908;2022-12-16T03:33:17;97059.63;;;3.09
27826;BMP280;15077;49.704;9.908;2022-12-16T03:35:55;97052.06;;;3.10
27826;BMP280;15077;49.704;9.908;2022-12-16T03:38:26;97061.19;;;3.11
27826;BMP280;15077;49.704;9.908;2022-12-16T03:40:56;97062.00;;;3.13
27826;BMP280;15077;49.704;9.908;2022-12-16T03:43:23;97067.81;;;3.14
27826;BMP280;15077;49.704;9.908;2022-12-16T03:45:54;97066.94;;;3.16
27826;BMP280;15077;49.704;9.908;2022-12-16T03:48:25;97066.09;;;3.16
27826;BMP280;15077;49.704;9.908;2022-12-16T03:50:51;97071.09;;;3.16
27826;BMP280;15077;49.704;9.908;2022-12-16T03:53:17;97071.09;;;3.16
27826;BMP280;15077;49.704;9.908;2022-12-16T03:55:43;97068.59;;;3.16
27826;BMP280;15077;49.704;9.908;2022-12-16T03:58:09;97068.59;;;3.16
27826;BMP280;15077;49.704;9.908;2022-12-16T04:00:35;97073.63;;;3.14
27826;BMP280;15077;49.704;9.908;2022-12-16T04:03:01;97070.28;;;3.15
27826;BMP280;15077;49.704;9.908;2022-12-16T04:05:27;97073.63;;;3.14
27826;BMP280;15077;49.704;9.908;2022-12-16T04:07:53;97075.34;;;3.14
27826;BMP280;15077;49.704;9.908;2022-12-16T04:10:19;97077.03;;;3.13
27826;BMP280;15077;49.704;9.908;2022-12-16T04:13:05;97082.88;;;3.12
27826;BMP280;15077;49.704;9.908;2022-12-16T04:15:49;97088.75;;;3.11
27826;BMP280;15077;49.704;9.908;2022-12-16T04:18:34;97084.63;;;3.10
27826;BMP280;15077;49.704;9.908;2022-12-16T04:21:18;97101.28;;;3.10
27826;BMP280;15077;49.704;9.908;2022-12-16T04:24:03;97098.06;;;3.06
27826;BMP280;15077;49.704;9.908;2022-12-16T04:26:45;97103.84;;;3.08
27826;BMP280;15077;49.704;9.908;2022-12-16T04:29:29;97099.72;;;3.07
27826;BMP280;15077;49.704;9.908;2022-12-16T04:31:56;97095.56;;;3.06
27826;BMP280;15077;49.704;9.908;2022-12-16T04:34:23;97099.69;;;3.09
27826;BMP280;15077;49.704;9.908;2022-12-16T04:36:58;97089.63;;;3.10
27826;BMP280;15077;49.704;9.908;2022-12-16T04:39:43;97111.34;;;3.08
27826;BMP280;15077;49.704;9.908;2022-12-16T04:42:28;97113.03;;;3.08
27826;BMP280;15077;49.704;9.908;2022-12-16T04:45:13;97118.91;;;3.07
27826;BMP280;15077;49.704;9.908;2022-12-16T04:47:58;97110.59;;;3.06
27826;BMP280;15077;49.704;9.908;2022-12-16T04:50:44;97134.78;;;3.06
27826;BMP280;15077;49.704;9.908;2022-12-16T04:53:28;97135.66;;;3.05
27826;BMP280;15077;49.704;9.908;2022-12-16T04:56:13;97138.97;;;3.05
27826;BMP280;15077;49.704;9.908;2022-12-16T04:58:58;97143.13;;;3.06
27826;BMP280;15077;49.704;9.908;2022-12-16T05:01:42;97144.81;;;3.06
27826;BMP280;15077;49.704;9.908;2022-12-16T05:04:26;97137.34;;;3.04
27826;BMP280;15077;49.704;9.908;2022-12-16T05:07:15;97144.81;;;3.06
27826;BMP280;15077;49.704;9.908;2022-12-16T05:10:00;97155.63;;;3.06
27826;BMP280;15077;49.704;9.908;2022-12-16T05:12:44;97159.00;;;3.05
27826;BMP280;15077;49.704;9.908;2022-12-16T05:15:28;97152.34;;;3.04
27826;BMP280;15077;49.704;9.908;2022-12-16T05:18:14;97160.63;;;3.06
27826;BMP280;15077;49.704;9.908;2022-12-16T05:21:01;97159.00;;;3.05
27826;BMP280;15077;49.704;9.908;2022-12-16T05:23:46;97168.19;;;3.05
27826;BMP280;15077;49.704;9.908;2022-12-16T05:26:31;97174.00;;;3.05
27826;BMP280;15077;49.704;9.908;2022-12-16T05:29:15;97167.38;;;3.04
27826;BMP280;15077;49.704;9.908;2022-12-16T05:31:59;97175.69;;;3.05
27826;BMP280;15077;49.704;9.908;2022-12-16T05:34:43;97179.00;;;3.05
27826;BMP280;15077;49.704;9.908;2022-12-16T05:37:27;97184.84;;;3.06
27826;BMP280;15077;49.704;9.908;2022-12-16T05:40:12;97188.22;;;3.05
27826;BMP280;15077;49.704;9.908;2022-12-16T05:42:56;97196.53;;;3.05
27826;BMP280;15077;49.704;9.908;2022-12-16T05:45:41;97196.53;;;3.05
27826;BMP280;15077;49.704;9.908;2022-12-16T05:48:25;97199.06;;;3.04
27826;BMP280;15077;49.704;9.908;2022-12-16T05:51:10;97204.97;;;3.03
27826;BMP280;15077;49.704;9.908;2022-12-16T05:53:54;97212.50;;;3.01
27826;BMP280;15077;49.704;9.908;2022-12-16T05:56:38;97215.81;;;3.02
27826;BMP280;15077;49.704;9.908;2022-12-16T05:59:23;97216.72;;;2.99
27826;BMP280;15077;49.704;9.908;2022-12-16T06:02:07;97221.72;;;2.99
27826;BMP280;15077;49.704;9.908;2022-12-16T06:04:52;97218.44;;;2.97
27826;BMP280;15077;49.704;9.908;2022-12-16T06:07:36;97219.28;;;2.96
27826;BMP280;15077;49.704;9.908;2022-12-16T06:10:20;97234.34;;;2.95
27826;BMP280;15077;49.704;9.908;2022-12-16T06:13:04;97235.22;;;2.94
27826;BMP280;15077;49.704;9.908;2022-12-16T06:15:48;97244.38;;;2.93
27826;BMP280;15077;49.704;9.908;2022-12-16T06:18:33;97247.66;;;2.97
27826;BMP280;15077;49.704;9.908;2022-12-16T06:21:17;97254.31;;;2.96
27826;BMP280;15077;49.704;9.908;2022-12-16T06:24:01;97257.75;;;2.94
27826;BMP280;15077;49.704;9.908;2022-12-16T06:26:46;97266.13;;;2.91
27826;BMP280;15077;49.704;9.908;2022-12-16T06:29:30;97269.47;;;2.90
27826;BMP280;15077;49.704;9.908;2022-12-16T06:32:15;97268.75;;;2.87
27826;BMP280;15077;49.704;9.908;2022-12-16T06:34:59;97277.94;;;2.87
27826;BMP280;15077;49.704;9.908;2022-12-16T06:37:47;97279.59;;;2.86
27826;BMP280;15077;49.704;9.908;2022-12-16T06:40:31;97290.50;;;2.85
27826;BMP280;15077;49.704;9.908;2022-12-16T06:43:15;97293.00;;;2.85
27826;BMP280;15077;49.704;9.908;2022-12-16T06:46:00;97290.50;;;2.85
27826;BMP280;15077;49.704;9.908;2022-12-16T06:48:44;97293.84;;;2.84
27826;BMP280;15077;49.704;9.908;2022-12-16T06:51:28;97297.19;;;2.83
27826;BMP280;15077;49.704;9.908;2022-12-16T06:54:12;97303.88;;;2.83
27826;BMP280;15077;49.704;9.908;2022-12-16T06:56:56;97310.53;;;2.84
27826;BMP280;15077;49.704;9.908;2022-12-16T06:59:40;97311.41;;;2.83
27826;BMP280;15077;49.704;9.908;2022-12-16T07:02:24;97313.13;;;2.81
27826;BMP280;15077;49.704;9.908;2022-12-16T07:05:08;97319.78;;;2.80
27826;BMP280;15077;49.704;9.908;2022-12-16T07:07:54;97321.47;;;2.80
27826;BMP280;15077;49.704;9.908;2022-12-16T07:10:39;97333.19;;;2.78
27826;BMP280;15077;49.704;9.908;2022-12-16T07:13:23;97336.56;;;2.77
27826;BMP280;15077;49.704;9.908;2022-12-16T07:16:07;97350.75;;;2.75
27826;BMP280;15077;49.704;9.908;2022-12-16T07:18:51;97358.25;;;2.75
27826;BMP280;15077;49.704;9.908;2022-12-16T07:21:35;97354.97;;;2.73
27826;BMP280;15077;49.704;9.908;2022-12-16T07:24:20;97368.31;;;2.72
27826;BMP280;15077;49.704;9.908;2022-12-16T07:27:04;97364.22;;;2.71
27826;BMP280;15077;49.704;9.908;2022-12-16T07:29:48;97372.53;;;2.71
27826;BMP280;15077;49.704;9.908;2022-12-16T07:32:49;97378.34;;;2.72
27826;BMP280;15077;49.704;9.908;2022-12-16T07:35:34;97379.19;;;2.72
27826;BMP280;15077;49.704;9.908;2022-12-16T07:38:18;97380.84;;;2.72
27826;BMP280;15077;49.704;9.908;2022-12-16T07:41:02;97395.00;;;2.73
27826;BMP280;15077;49.704;9.908;2022-12-16T07:43:46;97391.69;;;2.72
27826;BMP280;15077;49.704;9.908;2022-12-16T07:46:31;97380.84;;;2.72
27826;BMP280;15077;49.704;9.908;2022-12-16T07:49:17;97393.31;;;2.73
27826;BMP280;15077;49.704;9.908;2022-12-16T07:52:01;97405.00;;;2.73
27826;BMP280;15077;49.704;9.908;2022-12-16T07:54:45;97399.94;;;2.76
27826;BMP280;15077;49.704;9.908;2022-12-16T07:57:30;97409.91;;;2.77
27826;BMP280;15077;49.704;9.908;2022-12-16T08:00:14;97404.09;;;2.77
27826;BMP280;15077;49.704;9.908;2022-12-16T08:02:58;97410.75;;;2.76
27826;BMP280;15077;49.704;9.908;2022-12-16T08:05:43;97425.78;;;2.76
27826;BMP280;15077;49.704;9.908;2022-12-16T08:08:27;97418.31;;;2.75
27826;BMP280;15077;49.704;9.908;2022-12-16T08:11:11;97421.69;;;2.74
27826;BMP280;15077;49.704;9.908;2022-12-16T08:13:55;97429.16;;;2.75
27826;BMP280;15077;49.704;9.908;2022-12-16T08:16:39;97439.16;;;2.75
27826;BMP280;15077;49.704;9.908;2022-12-16T08:19:23;97439.16;;;2.75
27826;BMP280;15077;49.704;9.908;2022-12-16T08:22:08;97446.63;;;2.77
27826;BMP280;15077;49.704;9.908;2022-12-16T08:24:52;97445.78;;;2.78
27826;BMP280;15077;49.704;9.908;2022-12-16T08:27:36;97454.06;;;2.80
27826;BMP280;15077;49.704;9.908;2022-12-16T08:30:20;97464.91;;;2.80
27826;BMP280;15077;49.704;9.908;2022-12-16T08:33:04;97472.38;;;2.82
27826;BMP280;15077;49.704;9.908;2022-12-16T08:35:48;97477.38;;;2.82
27826;BMP280;15077;49.704;9.908;2022-12-16T08:38:34;97483.19;;;2.84
27826;BMP280;15077;49.704;9.908;2022-12-16T08:41:18;97486.47;;;2.86
27826;BMP280;15077;49.704;9.908;2022-12-16T08:44:03;97488.94;;;2.87
27826;BMP280;15077;49.704;9.908;2022-12-16T08:46:48;97490.63;;;2.88
27826;BMP280;15077;49.704;9.908;2022-12-16T08:49:32;97489.75;;;2.89
27826;BMP280;15077;49.704;9.908;2022-12-16T08:52:16;97494.72;;;2.90
27826;BMP280;15077;49.704;9.908;2022-12-16T08:55:00;97497.19;;;2.92
27826;BMP280;15077;49.704;9.908;2022-12-16T08:57:53;97499.66;;;2.93
27826;BMP280;15077;49.704;9.908;2022-12-16T09:00:38;97512.13;;;2.95
27826;BMP280;15077;49.704;9.908;2022-12-16T09:03:22;97512.97;;;2.95
27826;BMP280;15077;49.704;9.908;2022-12-16T09:06:06;97516.28;;;2.97
27826;BMP280;15077;49.704;9.908;2022-12-16T09:08:50;97518.75;;;2.99
27826;BMP280;15077;49.704;9.908;2022-12-16T09:11:34;97518.75;;;2.99
27826;BMP280;15077;49.704;9.908;2022-12-16T09:14:35;97526.22;;;3.00
27826;BMP280;15077;49.704;9.908;2022-12-16T09:17:19;97522.00;;;3.02
27826;BMP280;15077;49.704;9.908;2022-12-16T09:20:04;97526.16;;;3.03
27826;BMP280;15077;49.704;9.908;2022-12-16T09:22:48;97526.97;;;3.04
27826;BMP280;15077;49.704;9.908;2022-12-16T09:25:32;97536.09;;;3.06
27826;BMP280;15077;49.704;9.908;2022-12-16T09:28:16;97536.09;;;3.06
27826;BMP280;15077;49.704;9.908;2022-12-16T09:31:00;97535.25;;;3.07
27826;BMP280;15077;49.704;9.908;2022-12-16T09:33:44;97538.59;;;3.08
27826;BMP280;15077;49.704;9.908;2022-12-16T09:36:29;97543.56;;;3.09
27826;BMP280;15077;49.704;9.908;2022-12-16T09:39:13;97541.06;;;3.09
27826;BMP280;15077;49.704;9.908;2022-12-16T09:42:27;97540.88;;;3.18
27826;BMP280;15077;49.704;9.908;2022-12-16T09:45:32;97540.03;;;3.19
27826;BMP280;15077;49.704;9.908;2022-12-16T09:51:46;97536.63;;;3.20
27826;BMP280;15077;49.704;9.908;2022-12-16T09:54:35;97545.81;;;3.21
27826;BMP280;15077;49.704;9.908;2022-12-16T09:57:21;97543.25;;;3.24
27826;BMP280;15077;49.704;9.908;2022-12-16T10:00:22;97544.06;;;3.26
27826;BMP280;15077;49.704;9.908;2022-12-16T10:03:26;97542.34;;;3.28
27826;BMP280;15077;49.704;9.908;2022-12-16T10:10:05;97552.28;;;3.31
27826;BMP280;15077;49.704;9.908;2022-12-16T10:19:43;97549.53;;;3.43
27826;BMP280;15077;49.704;9.908;2022-12-16T10:22:55;97546.13;;;3.45
27826;BMP280;15077;49.704;9.908;2022-12-16T10:25:59;97543.56;;;3.48
27826;BMP280;15077;49.704;9.908;2022-12-16T10:28:47;97545.81;;;3.60
27826;BMP280;15077;49.704;9.908;2022-12-16T10:31:34;97549.09;;;3.62
27826;BMP280;15077;49.704;9.908;2022-12-16T10:34:27;97552.34;;;3.66
27826;BMP280;15077;49.704;9.908;2022-12-16T10:37:35;97554.84;;;3.66
27826;BMP280;15077;49.704;9.908;2022-12-16T10:40:29;97548.94;;;3.68
27826;BMP280;15077;49.704;9.908;2022-12-16T10:43:42;97567.31;;;3.70
27826;BMP280;15077;49.704;9.908;2022-12-16T10:46:32;97561.38;;;3.73
27826;BMP280;15077;49.704;9.908;2022-12-16T10:49:18;97565.50;;;3.75
27826;BMP280;15077;49.704;9.908;2022-12-16T10:52:03;97564.63;;;3.78
27826;BMP280;15077;49.704;9.908;2022-12-16T10:58:55;97559.63;;;3.78
27826;BMP280;15077;49.704;9.908;2022-12-16T11:01:40;97567.88;;;3.81
27826;BMP280;15077;49.704;9.908;2022-12-16T11:04:34;97561.09;;;3.84
27826;BMP280;15077;49.704;9.908;2022-12-16T11:07:38;97557.69;;;3.88
27826;BMP280;15077;49.704;9.908;2022-12-16T11:10:36;97560.97;;;3.90
27826;BMP280;15077;49.704;9.908;2022-12-16T11:13:26;97555.88;;;3.93
27826;BMP280;15077;49.704;9.908;2022-12-16T11:16:23;97554.91;;;3.99
27826;BMP280;15077;49.704;9.908;2022-12-16T11:19:27;97561.56;;;4.01
27826;BMP280;15077;49.704;9.908;2022-12-16T11:22:20;97564.00;;;4.04
27826;BMP280;15077;49.704;9.908;2022-12-16T11:25:18;97554.75;;;4.06
27826;BMP280;15077;49.704;9.908;2022-12-16T11:28:04;97562.19;;;4.09
27826;BMP280;15077;49.704;9.908;2022-12-16T11:30:54;97563.78;;;4.13
27826;BMP280;15077;49.704;9.908;2022-12-16T11:33:42;97568.72;;;4.16
27826;BMP280;15077;49.704;9.908;2022-12-16T11:36:31;97576.97;;;4.20
27826;BMP280;15077;49.704;9.908;2022-12-16T11:39:22;97579.38;;;4.24
27826;BMP280;15077;49.704;9.908;2022-12-16T11:42:33;97581.81;;;4.27
27826;BMP280;15077;49.704;9.908;2022-12-16T11:45:20;97582.59;;;4.31
27826;BMP280;15077;49.704;9.908;2022-12-16T11:48:35;97585.91;;;4.31
27826;BMP280;15077;49.704;9.908;2022-12-16T11:51:23;97595.03;;;4.35
27826;BMP280;15077;49.704;9.908;2022-12-16T11:54:22;97597.44;;;4.38
27826;BMP280;15077;49.704;9.908;2022-12-16T11:57:26;97594.88;;;4.41
27826;BMP280;15077;49.704;9.908;2022-12-16T12:00:16;97596.47;;;4.43
27826;BMP280;15077;49.704;9.908;2022-12-16T12:03:13;97604.75;;;4.47
27826;BMP280;15077;49.704;9.908;2022-12-16T12:09:22;97612.97;;;4.52
27826;BMP280;15077;49.704;9.908;2022-12-16T12:15:02;97610.19;;;4.62
27826;BMP280;15077;49.704;9.908;2022-12-16T12:21:26;97624.44;;;4.62
27826;BMP280;15077;49.704;9.908;2022-12-16T12:24:37;97625.22;;;4.64
27826;BMP280;15077;49.704;9.908;2022-12-16T12:27:33;97629.34;;;4.66
27826;BMP280;15077;49.704;9.908;2022-12-16T12:30:21;97625.13;;;4.68
27826;BMP280;15077;49.704;9.908;2022-12-16T12:36:34;97627.47;;;4.74
27826;BMP280;15077;49.704;9.908;2022-12-16T12:39:36;97630.75;;;4.78
27826;BMP280;15077;49.704;9.908;2022-12-16T12:42:51;97636.56;;;4.78
27826;BMP280;15077;49.704;9.908;2022-12-16T12:46:05;97643.19;;;4.82
27826;BMP280;15077;49.704;9.908;2022-12-16T12:48:56;97639.78;;;4.83
27826;BMP280;15077;49.704;9.908;2022-12-16T12:51:59;97651.38;;;4.88
27826;BMP280;15077;49.704;9.908;2022-12-16T12:55:22;97654.69;;;4.89
27826;BMP280;15077;49.704;9.908;2022-12-16T12:58:11;97648.88;;;4.88
27826;BMP280;15077;49.704;9.908;2022-12-16T13:00:59;97652.06;;;4.93
27826;BMP280;15077;49.704;9.908;2022-12-16T13:03:50;97658.66;;;4.97
27826;BMP280;15077;49.704;9.908;2022-12-16T13:06:37;97664.44;;;5.01
27826;BMP280;15077;49.704;9.908;2022-12-16T13:09:24;97666.84;;;5.04
27826;BMP280;15077;49.704;9.908;2022-12-16T13:15:13;97671.72;;;5.11
27826;BMP280;15077;49.704;9.908;2022-12-16T13:21:48;97685.00;;;5.15
27826;BMP280;15077;49.704;9.908;2022-12-16T13:27:17;97693.28;;;5.18
27826;BMP280;15077;49.704;9.908;2022-12-16T13:30:23;97698.25;;;5.20
27826;BMP280;15077;49.704;9.908;2022-12-16T13:33:24;97694.03;;;5.22
27826;BMP280;15077;49.704;9.908;2022-12-16T13:36:13;97691.44;;;5.25
27826;BMP280;15077;49.704;9.908;2022-12-16T13:39:28;97694.75;;;5.27
27826;BMP280;15077;49.704;9.908;2022-12-16T13:45:31;97705.56;;;5.28
27826;BMP280;15077;49.704;9.908;2022-12-16T13:48:36;97706.41;;;5.29
27826;BMP280;15077;49.704;9.908;2022-12-16T13:54:34;97716.47;;;5.29
27826;BMP280;15077;49.704;9.908;2022-12-16T13:57:23;97718.09;;;5.30
27826;BMP280;15077;49.704;9.908;2022-12-16T14:00:28;97719.75;;;5.31
27826;BMP280;15077;49.704;9.908;2022-12-16T14:03:38;97726.44;;;5.32
27826;BMP280;15077;49.704;9.908;2022-12-16T14:06:26;97733.94;;;5.33
27826;BMP280;15077;49.704;9.908;2022-12-16T14:13:20;97733.97;;;5.32
27826;BMP280;15077;49.704;9.908;2022-12-16T14:16:20;97744.88;;;5.31
27826;BMP280;15077;49.704;9.908;2022-12-16T14:19:24;97752.63;;;5.22
27826;BMP280;15077;49.704;9.908;2022-12-16T14:25:13;97757.56;;;5.27
27826;BMP280;15077;49.704;9.908;2022-12-16T14:27:59;97756.72;;;5.26
27826;BMP280;15077;49.704;9.908;2022-12-16T14:30:44;97758.31;;;5.28
27826;BMP280;15077;49.704;9.908;2022-12-16T14:33:29;97764.97;;;5.31
27826;BMP280;15077;49.704;9.908;2022-12-16T14:36:26;97769.16;;;5.32
27826;BMP280;15077;49.704;9.908;2022-12-16T14:39:19;97773.28;;;5.33
27826;BMP280;15077;49.704;9.908;2022-12-16T14:42:26;97776.69;;;5.32
27826;BMP280;15077;49.704;9.908;2022-12-16T14:45:25;97787.53;;;5.32
27826;BMP280;15077;49.704;9.908;2022-12-16T14:51:48;97795.13;;;5.31
27826;BMP280;15077;49.704;9.908;2022-12-16T14:54:41;97798.41;;;5.33
27826;BMP280;15077;49.704;9.908;2022-12-16T14:57:29;97802.59;;;5.34
27826;BMP280;15077;49.704;9.908;2022-12-16T15:00:22;97803.38;;;5.36
27826;BMP280;15077;49.704;9.908;2022-12-16T15:03:41;97811.78;;;5.35
27826;BMP280;15077;49.704;9.908;2022-12-16T15:09:35;97819.28;;;5.36
27826;BMP280;15077;49.704;9.908;2022-12-16T15:12:25;97828.50;;;5.36
27826;BMP280;15077;49.704;9.908;2022-12-16T15:15:23;97833.50;;;5.36
27826;BMP280;15077;49.704;9.908;2022-12-16T15:18:24;97844.41;;;5.36
27826;BMP280;15077;49.704;9.908;2022-12-16T15:21:09;97848.59;;;5.36
27826;BMP280;15077;49.704;9.908;2022-12-16T15:23:55;97848.59;;;5.36
27826;BMP280;15077;49.704;9.908;2022-12-16T15:26:39;97852.00;;;5.35
27826;BMP280;15077;49.704;9.908;2022-12-16T15:29:37;97851.16;;;5.34
27826;BMP280;15077;49.704;9.908;2022-12-16T15:32:34;97861.19;;;5.34
27826;BMP280;15077;49.704;9.908;2022-12-16T15:35:26;97855.38;;;5.32
27826;BMP280;15077;49.704;9.908;2022-12-16T15:40:58;97870.53;;;5.29
27826;BMP280;15077;49.704;9.908;2022-12-16T15:43:46;97878.97;;;5.27
27826;BMP280;15077;49.704;9.908;2022-12-16T15:46:32;97878.16;;;5.27
27826;BMP280;15077;49.704;9.908;2022-12-16T15:49:37;97877.41;;;5.23
27826;BMP280;15077;49.704;9.908;2022-12-16T15:52:39;97894.19;;;5.21
27826;BMP280;15077;49.704;9.908;2022-12-16T15:55:38;97903.44;;;5.19
27826;BMP280;15077;49.704;9.908;2022-12-16T15:58:29;97900.16;;;5.17
27826;BMP280;15077;49.704;9.908;2022-12-16T16:01:21;97907.75;;;5.14
27826;BMP280;15077;49.704;9.908;2022-12-16T16:04:25;97907.81;;;5.11
27826;BMP280;15077;49.704;9.908;2022-12-16T16:07:22;97919.56;;;5.09
27826;BMP280;15077;49.704;9.908;2022-12-16T16:10:19;97917.97;;;5.05
27826;BMP280;15077;49.704;9.908;2022-12-16T16:13:04;97918.03;;;5.02
27826;BMP280;15077;49.704;9.908;2022-12-16T16:15:49;97928.19;;;4.98
27826;BMP280;15077;49.704;9.908;2022-12-16T16:18:33;97936.63;;;4.95
27826;BMP280;15077;49.704;9.908;2022-12-16T16:21:18;97939.22;;;4.92
27826;BMP280;15077;49.704;9.908;2022-12-16T16:24:02;97938.41;;;4.90
27826;BMP280;15077;49.704;9.908;2022-12-16T16:26:50;97944.34;;;4.88
27826;BMP280;15077;49.704;9.908;2022-12-16T16:29:49;97939.41;;;4.83
27826;BMP280;15077;49.704;9.908;2022-12-16T16:32:33;97946.97;;;4.82
27826;BMP280;15077;49.704;9.908;2022-12-16T16:35:17;97943.59;;;4.81
27826;BMP280;15077;49.704;9.908;2022-12-16T16:38:02;97948.63;;;4.81
27826;BMP280;15077;49.704;9.908;2022-12-16T16:40:46;97947.84;;;4.80
27826;BMP280;15077;49.704;9.908;2022-12-16T16:43:31;97947.88;;;4.78
27826;BMP280;15077;49.704;9.908;2022-12-16T16:46:37;97952.16;;;4.75
27826;BMP280;15077;49.704;9.908;2022-12-16T16:49:29;97961.31;;;4.76
27826;BMP280;15077;49.704;9.908;2022-12-16T16:52:18;97959.72;;;4.73
27826;BMP280;15077;49.704;9.908;2022-12-16T16:55:05;97959.72;;;4.73
27826;BMP280;15077;49.704;9.908;2022-12-16T16:57:49;97961.38;;;4.73
27826;BMP280;15077;49.704;9.908;2022-12-16T17:00:34;97964.75;;;4.72
27826;BMP280;15077;49.704;9.908;2022-12-16T17:03:18;97978.97;;;4.71
27826;BMP280;15077;49.704;9.908;2022-12-16T17:06:03;97978.16;;;4.71
27826;BMP280;15077;49.704;9.908;2022-12-16T17:08:48;97977.38;;;4.69
27826;BMP280;15077;49.704;9.908;2022-12-16T17:11:33;97981.53;;;4.68
27826;BMP280;15077;49.704;9.908;2022-12-16T17:14:19;97983.25;;;4.68
27826;BMP280;15077;49.704;9.908;2022-12-16T17:17:05;97983.25;;;4.68
27826;BMP280;15077;49.704;9.908;2022-12-16T17:19:50;97989.13;;;4.65
27826;BMP280;15077;49.704;9.908;2022-12-16T17:22:35;97986.66;;;4.64
27826;BMP280;15077;49.704;9.908;2022-12-16T17:25:20;97994.09;;;4.68
27826;BMP280;15077;49.704;9.908;2022-12-16T17:28:04;98007.47;;;4.70
27826;BMP280;15077;49.704;9.908;2022-12-16T17:30:49;98009.19;;;4.67